Time;durP1;ratioP1;P1;durP2;ratioP2;P2;SDS_P1;SDS_P2;PMS_P1;PMS_P2;Temp;Humidity;BMP_temperature;BMP_pressure;BME280_temperature;BME280_humidity;BME280_pressure;Samples;Min_cycle;Max_cycle;Signal;HPM_P1;HPM_P2
2021/12/20 00:31:16;;;;;;;5.58;4.60;;;;;;;4.43;64.37;93810.41;827851;71;29754;-77
2021/12/20 00:46:21;;;;;;;5.70;4.75;;;;;;;4.36;64.41;93802.91;827706;71;30829;-79
2021/12/20 01:01:39;;;;;;;7.20;5.78;;;;;;;4.33;64.79;93781.34;800735;72;31973;-80
2021/12/20 01:31:28;;;;;;;5.25;4.75;;;;;;;4.31;64.30;93776.17;827909;71;31328;-80
2021/12/20 01:46:11;;;;;;;5.35;4.85;;;;;;;4.28;63.65;93783.98;827792;71;31457;-78
2021/12/20 02:16:14;;;;;;;5.42;4.55;;;;;;;4.32;63.98;93792.80;835014;71;32650;-80
2021/12/20 02:46:46;;;;;;;7.85;5.35;;;;;;;4.29;64.49;93791.24;829477;71;29763;-82
2021/12/20 03:01:09;;;;;;;5.20;4.70;;;;;;;4.33;64.85;93803.95;829075;71;30342;-82
2021/12/20 03:16:08;;;;;;;5.00;4.60;;;;;;;4.30;65.17;93791.48;828682;71;29732;-79
2021/12/20 03:31:09;;;;;;;7.45;5.70;;;;;;;4.32;65.58;93780.31;829257;71;30281;-81
2021/12/20 03:46:24;;;;;;;6.12;5.40;;;;;;;4.34;65.48;93799.00;828550;71;32721;-79
2021/12/20 04:01:16;;;;;;;6.00;5.20;;;;;;;4.39;65.32;93809.38;834855;71;32672;-79
2021/12/20 04:16:10;;;;;;;7.83;6.20;;;;;;;4.37;66.23;93821.85;828868;71;30292;-80
2021/12/20 04:31:09;;;;;;;6.80;5.67;;;;;;;4.35;67.02;93848.08;822158;71;29674;-80
2021/12/20 04:46:17;;;;;;;8.43;6.17;;;;;;;4.36;66.82;93849.66;819824;70;32766;-81
2021/12/20 05:01:09;;;;;;;6.58;5.35;;;;;;;4.32;67.06;93862.11;823031;71;30413;-82
2021/12/20 05:31:09;;;;;;;6.80;6.10;;;;;;;4.54;68.03;93896.86;827984;71;30756;-77
2021/12/20 05:46:08;;;;;;;7.05;5.90;;;;;;;4.58;68.25;93909.08;819913;71;29866;-77
2021/12/20 06:01:14;;;;;;;6.03;5.42;;;;;;;4.47;68.03;93915.33;818919;71;32853;-76
2021/12/20 06:16:08;;;;;;;7.00;5.22;;;;;;;4.41;68.19;93911.95;828104;71;29701;-77
2021/12/20 06:31:08;;;;;;;5.78;5.15;;;;;;;4.39;68.29;93927.55;828051;71;29703;-78
2021/12/20 06:46:08;;;;;;;6.97;6.15;;;;;;;4.46;68.35;93933.77;828225;71;29655;-77
2021/12/20 07:01:15;;;;;;;6.33;5.28;;;;;;;4.52;67.74;93927.52;827209;71;32786;-79
2021/12/20 07:16:08;;;;;;;5.33;4.83;;;;;;;4.53;67.86;93929.09;827723;71;30215;-76
2021/12/20 07:31:09;;;;;;;6.05;4.80;;;;;;;4.70;67.91;93931.38;833719;71;29643;-77
2021/12/20 07:46:26;;;;;;;4.42;4.00;;;;;;;5.05;66.15;93930.98;828889;71;30269;-78
2021/12/20 08:01:08;;;;;;;6.00;5.40;;;;;;;5.05;65.74;93936.19;827996;71;29735;-77
2021/12/20 08:16:09;;;;;;;4.22;3.83;;;;;;;5.53;63.35;93948.95;827996;71;30280;-79
2021/12/20 08:31:14;;;;;;;4.15;3.85;;;;;;;5.98;61.79;93960.17;833470;71;32660;-79
2021/12/20 08:46:09;;;;;;;4.40;3.90;;;;;;;6.92;58.65;93970.81;827977;71;29710;-76
2021/12/20 09:01:08;;;;;;;5.20;4.40;;;;;;;6.93;57.69;93972.88;833979;71;29792;-79
2021/12/20 09:31:12;;;;;;;4.72;4.10;;;;;;;7.40;55.92;93966.88;821755;71;31513;-78
2021/12/20 09:46:13;;;;;;;4.30;4.00;;;;;;;7.13;56.14;93972.66;826130;71;32414;-78
2021/12/20 10:01:16;;;;;;;4.40;4.00;;;;;;;7.02;55.78;93957.66;827035;71;32660;-78
2021/12/20 10:16:20;;;;;;;4.10;3.52;;;;;;;6.75;55.93;93949.09;827923;71;30461;-77
2021/12/20 10:31:14;;;;;;;4.22;3.83;;;;;;;6.72;56.53;93945.72;827896;71;29826;-78
2021/12/20 10:46:12;;;;;;;3.85;3.60;;;;;;;6.63;57.33;93953.91;828022;71;29731;-77
2021/12/20 11:16:29;;;;;;;3.17;2.87;;;;;;;6.63;58.37;93979.97;829183;71;32646;-80
2021/12/20 11:31:14;;;;;;;3.30;3.10;;;;;;;6.55;59.35;93955.78;827228;71;32757;-80
2021/12/20 11:46:15;;;;;;;2.85;2.65;;;;;;;6.24;60.25;93948.77;827638;71;32677;-79
2021/12/20 12:01:18;;;;;;;2.95;2.75;;;;;;;5.92;60.49;93964.34;828033;71;30317;-78
2021/12/20 12:16:37;;;;;;;4.33;4.00;;;;;;;5.89;60.64;93983.89;833969;71;32677;-79
2021/12/20 13:16:22;;;;;;;3.00;2.80;;;;;;;5.03;58.17;94027.47;834103;71;33389;-77
2021/12/20 13:31:18;;;;;;;4.15;3.40;;;;;;;5.11;57.12;94039.13;827260;71;32629;-80
2021/12/20 13:46:29;;;;;;;3.47;3.17;;;;;;;4.75;54.58;94060.00;828134;71;29732;-79
2021/12/20 14:01:10;;;;;;;5.15;3.60;;;;;;;4.50;53.64;94090.65;828368;71;30278;-77
2021/12/20 14:16:08;;;;;;;4.80;3.92;;;;;;;4.17;53.23;94098.66;829647;71;30234;-80
2021/12/20 14:31:30;;;;;;;8.95;6.40;;;;;;;3.75;54.61;94115.17;834889;71;32745;-79
2021/12/20 14:46:15;;;;;;;4.87;4.35;;;;;;;3.43;56.34;94132.63;828032;71;30745;-79
2021/12/20 15:01:15;;;;;;;6.53;5.55;;;;;;;3.15;57.90;94164.38;827225;71;32691;-80
2021/12/20 15:16:09;;;;;;;7.08;5.55;;;;;;;2.93;58.84;94177.42;827971;71;30257;-80
2021/12/20 15:31:14;;;;;;;9.15;5.08;;;;;;;2.67;58.79;94170.73;827176;71;32774;-78
2021/12/20 15:46:14;;;;;;;5.40;4.80;;;;;;;2.53;57.69;94205.81;833689;71;32791;-78
2021/12/20 17:46:43;;;;;;;;;;;;;;;;;;;;;
2021/12/20 18:01:27;;;;;;;7.40;6.15;;;;;;;2.18;58.21;94351.94;833803;71;31878;-78
2021/12/20 18:31:16;;;;;;;8.48;6.30;;;;;;;2.27;57.09;94353.11;828417;71;30755;-80
2021/12/20 18:46:58;;;;;;;6.33;4.95;;;;;;;2.21;56.90;94378.66;815086;72;31963;-77
